createdAt,value
2018-12-02T00:02:08.038Z,57.00
2018-12-02T00:04:38.873Z,57.00
2018-12-02T00:07:09.813Z,56.90
2018-12-02T00:09:41.464Z,56.90
2018-12-02T00:12:13.733Z,56.90
2018-12-02T00:14:44.518Z,56.90
2018-12-02T00:17:15.531Z,56.90
2018-12-02T00:19:46.295Z,56.80
2018-12-02T00:22:17.178Z,56.90
2018-12-02T00:24:47.956Z,56.80
2018-12-02T00:27:18.802Z,56.80
2018-12-02T00:29:49.600Z,56.90
2018-12-02T00:32:20.302Z,56.90
2018-12-02T00:34:51.234Z,56.90
2018-12-02T00:37:28.700Z,57.00
2018-12-02T00:40:00.739Z,57.00
2018-12-02T00:42:31.592Z,57.00
2018-12-02T00:45:02.864Z,57.60
2018-12-02T00:47:34.079Z,57.00
2018-12-02T00:50:06.832Z,57.00
2018-12-02T00:52:38.340Z,57.00
2018-12-02T00:55:11.574Z,57.00
2018-12-02T00:57:43.361Z,57.00
2018-12-02T01:00:17.105Z,57.00
2018-12-02T01:02:49.429Z,57.20
2018-12-02T01:05:22.796Z,57.20
2018-12-02T01:07:53.553Z,57.30
2018-12-02T01:10:26.749Z,57.40
2018-12-02T01:12:59.717Z,57.40
2018-12-02T01:15:32.469Z,57.40
2018-12-02T01:18:03.200Z,57.40
2018-12-02T01:20:34.095Z,57.50
2018-12-02T01:23:05.399Z,57.50
2018-12-02T01:25:37.288Z,57.50
2018-12-02T01:28:09.046Z,57.50
2018-12-02T01:30:39.995Z,57.50
2018-12-02T01:33:10.721Z,57.60
2018-12-02T01:35:41.543Z,57.60
2018-12-02T01:38:12.575Z,57.60
2018-12-02T01:40:47.748Z,57.60
2018-12-02T01:43:21.477Z,57.50
2018-12-02T01:45:52.175Z,57.60
2018-12-02T01:48:22.914Z,57.60
2018-12-02T01:50:53.725Z,57.60
2018-12-02T01:53:24.466Z,57.50
2018-12-02T01:55:55.196Z,57.70
2018-12-02T01:58:25.985Z,57.70
2018-12-02T02:00:56.842Z,57.70
2018-12-02T02:03:27.689Z,57.80
2018-12-02T02:05:58.500Z,57.80
2018-12-02T02:08:29.312Z,57.70
2018-12-02T02:11:00.109Z,57.80
2018-12-02T02:13:30.768Z,57.90
2018-12-02T02:16:01.588Z,57.90
2018-12-02T02:18:32.218Z,57.90
2018-12-02T02:21:02.969Z,58.00
2018-12-02T02:23:33.692Z,58.10
2018-12-02T02:26:04.368Z,58.00
2018-12-02T02:28:35.060Z,58.20
2018-12-02T02:31:07.038Z,58.30
2018-12-02T02:33:44.160Z,58.40
2018-12-02T02:36:15.117Z,58.60
2018-12-02T02:38:45.896Z,58.50
2018-12-02T02:41:16.635Z,58.70
2018-12-02T02:43:47.330Z,58.80
2018-12-02T02:46:17.694Z,58.90
2018-12-02T02:48:48.777Z,59.10
2018-12-02T02:51:19.688Z,59.20
2018-12-02T02:53:50.396Z,59.10
2018-12-02T02:56:21.074Z,59.30
2018-12-02T02:58:51.756Z,59.30
2018-12-02T03:01:22.488Z,59.40
2018-12-02T03:03:53.330Z,59.40
2018-12-02T03:06:24.183Z,59.60
2018-12-02T03:08:55.279Z,59.70
2018-12-02T03:11:26.099Z,59.80
2018-12-02T03:13:56.877Z,59.90
2018-12-02T03:16:27.570Z,60.00
2018-12-02T03:18:58.640Z,60.30
2018-12-02T03:21:29.757Z,60.30
2018-12-02T03:24:00.534Z,60.40
2018-12-02T03:26:31.297Z,60.50
2018-12-02T03:29:01.992Z,60.60
2018-12-02T03:31:32.825Z,60.60
2018-12-02T03:34:03.572Z,60.80
2018-12-02T03:36:34.272Z,60.80
2018-12-02T03:39:06.285Z,61.00
2018-12-02T03:41:37.126Z,60.90
2018-12-02T03:44:07.825Z,61.00
2018-12-02T03:46:38.565Z,61.00
2018-12-02T03:49:09.299Z,62.20
2018-12-02T03:51:40.072Z,62.20
2018-12-02T03:54:10.909Z,60.30
2018-12-02T03:56:45.782Z,61.60
2018-12-02T03:59:17.146Z,61.50
2018-12-02T04:01:47.977Z,61.60
2018-12-02T04:04:18.713Z,61.70
2018-12-02T04:06:49.504Z,61.90
2018-12-02T04:09:20.325Z,62.00
2018-12-02T04:11:51.228Z,62.10
2018-12-02T04:14:21.850Z,62.10
2018-12-02T04:16:52.761Z,62.20
2018-12-02T04:19:23.452Z,62.20
2018-12-02T04:21:54.503Z,62.50
2018-12-02T04:24:25.323Z,62.50
2018-12-02T04:26:56.105Z,62.50
2018-12-02T04:29:26.920Z,62.70
2018-12-02T04:31:57.602Z,62.80
2018-12-02T04:34:29.394Z,62.80
2018-12-02T04:37:00.093Z,62.80
2018-12-02T04:39:31.066Z,62.90
2018-12-02T04:42:01.804Z,62.80
2018-12-02T04:44:32.680Z,62.90
2018-12-02T04:47:03.017Z,63.20
2018-12-02T04:49:33.700Z,63.20
2018-12-02T04:52:04.438Z,63.10
2018-12-02T04:54:35.133Z,63.70
2018-12-02T04:57:06.310Z,63.70
2018-12-02T04:59:37.272Z,63.40
2018-12-02T05:02:08.022Z,63.50
2018-12-02T05:04:39.098Z,63.60
2018-12-02T05:07:09.923Z,63.60
2018-12-02T05:09:40.605Z,63.70
2018-12-02T05:12:11.285Z,63.80
2018-12-02T05:14:42.022Z,63.60
2018-12-02T05:17:12.839Z,64.00
2018-12-02T05:19:43.475Z,63.80
2018-12-02T05:22:14.304Z,64.10
2018-12-02T05:24:44.974Z,64.00
2018-12-02T05:27:15.651Z,64.10
2018-12-02T05:29:46.305Z,64.00
2018-12-02T05:32:17.023Z,64.10
2018-12-02T05:34:54.167Z,64.00
2018-12-02T05:37:24.918Z,64.20
2018-12-02T05:39:55.614Z,64.10
2018-12-02T05:42:32.807Z,64.10
2018-12-02T05:45:03.843Z,64.30
2018-12-02T05:47:34.484Z,64.40
2018-12-02T05:50:14.048Z,64.40
2018-12-02T05:52:46.051Z,64.40
2018-12-02T05:55:19.921Z,64.50
2018-12-02T05:57:50.527Z,65.00
2018-12-02T06:00:22.832Z,64.40
2018-12-02T06:02:54.108Z,64.50
2018-12-02T06:05:25.054Z,64.50
2018-12-02T06:07:55.804Z,64.50
2018-12-02T06:10:26.813Z,64.80
2018-12-02T06:12:57.677Z,64.70
2018-12-02T06:15:28.464Z,64.90
2018-12-02T06:17:59.235Z,64.80
2018-12-02T06:20:30.005Z,64.90
2018-12-02T06:23:00.843Z,65.00
2018-12-02T06:25:31.543Z,64.90
2018-12-02T06:28:02.703Z,65.10
2018-12-02T06:30:40.251Z,65.00
2018-12-02T06:33:11.007Z,65.10
2018-12-02T06:35:41.780Z,65.10
2018-12-02T06:38:12.586Z,65.10
2018-12-02T06:40:43.331Z,65.30
2018-12-02T06:43:14.152Z,65.50
2018-12-02T06:45:44.907Z,65.50
2018-12-02T06:48:15.759Z,65.70
2018-12-02T06:50:47.005Z,65.40
2018-12-02T06:53:17.749Z,65.50
2018-12-02T06:55:54.175Z,65.60
2018-12-02T06:58:51.103Z,65.60
2018-12-02T07:01:37.328Z,65.60
2018-12-02T07:04:18.520Z,65.50
2018-12-02T07:06:49.348Z,65.70
2018-12-02T07:09:20.024Z,65.80
2018-12-02T07:11:50.750Z,65.90
2018-12-02T07:14:21.831Z,66.10
2018-12-02T07:16:52.519Z,65.90
2018-12-02T07:19:30.582Z,67.60
2018-12-02T07:22:08.958Z,66.20
2018-12-02T07:24:40.924Z,66.30
2018-12-02T07:27:14.052Z,66.30
2018-12-02T07:29:45.047Z,66.60
2018-12-02T07:32:16.042Z,66.40
2018-12-02T07:34:46.850Z,66.50
2018-12-02T07:37:20.833Z,67.30
2018-12-02T07:40:02.096Z,66.70
2018-12-02T07:42:32.981Z,66.70
2018-12-02T07:45:03.722Z,66.70
2018-12-02T07:47:34.808Z,65.50
2018-12-02T07:50:07.631Z,66.60
2018-12-02T07:52:38.687Z,66.80
2018-12-02T07:55:10.663Z,66.70
2018-12-02T07:57:41.790Z,66.80
2018-12-02T08:00:15.430Z,66.80
2018-12-02T08:02:45.985Z,67.00
2018-12-02T08:05:18.226Z,67.00
2018-12-02T08:07:50.480Z,67.20
2018-12-02T08:10:21.530Z,67.10
2018-12-02T08:12:52.302Z,67.40
2018-12-02T08:15:23.210Z,67.40
2018-12-02T08:17:53.959Z,68.10
2018-12-02T08:20:24.900Z,67.40
2018-12-02T08:22:56.440Z,67.40
2018-12-02T08:25:27.783Z,67.50
2018-12-02T08:27:58.521Z,67.50
2018-12-02T08:30:29.335Z,67.40
2018-12-02T08:33:00.119Z,67.50
2018-12-02T08:35:30.929Z,67.70
2018-12-02T08:38:06.371Z,67.50
2018-12-02T08:40:37.093Z,67.70
2018-12-02T08:43:09.272Z,67.20
2018-12-02T08:45:41.310Z,67.90
2018-12-02T08:48:12.145Z,67.80
2018-12-02T08:50:43.092Z,67.90
2018-12-02T08:53:13.962Z,67.90
2018-12-02T08:55:44.871Z,67.90
2018-12-02T08:58:15.707Z,68.00
2018-12-02T09:00:46.491Z,68.10
2018-12-02T09:03:17.244Z,68.00
2018-12-02T09:05:48.231Z,68.10
2018-12-02T09:08:19.164Z,68.00
2018-12-02T09:10:49.845Z,68.10
2018-12-02T09:13:20.717Z,68.10
2018-12-02T09:15:51.539Z,68.20
2018-12-02T09:18:22.406Z,68.20
2018-12-02T09:20:52.941Z,68.30
2018-12-02T09:23:23.863Z,68.30
2018-12-02T09:25:54.723Z,68.40
2018-12-02T09:28:25.915Z,68.50
2018-12-02T09:30:56.988Z,68.50
2018-12-02T09:33:27.869Z,68.60
2018-12-02T09:35:58.612Z,68.50
2018-12-02T09:38:36.129Z,68.60
2018-12-02T09:41:07.622Z,68.80
2018-12-02T09:43:38.404Z,68.80
2018-12-02T09:46:09.214Z,68.70
2018-12-02T09:48:39.977Z,69.90
2018-12-02T09:51:11.115Z,69.00
2018-12-02T09:53:42.054Z,69.10
2018-12-02T09:56:13.013Z,69.30
2018-12-02T09:58:43.752Z,69.30
2018-12-02T10:01:14.829Z,69.50
2018-12-02T10:03:45.772Z,69.60
2018-12-02T10:06:17.132Z,69.50
2018-12-02T10:08:47.907Z,70.50
2018-12-02T10:11:18.806Z,69.80
2018-12-02T10:13:49.683Z,69.80
2018-12-02T10:16:20.557Z,69.80
2018-12-02T10:18:51.937Z,69.10
2018-12-02T10:21:22.825Z,70.00
2018-12-02T10:23:53.646Z,70.00
2018-12-02T10:26:24.609Z,70.00
2018-12-02T10:28:55.586Z,70.10
2018-12-02T10:31:26.494Z,70.10
2018-12-02T10:33:57.679Z,70.20
2018-12-02T10:36:28.569Z,70.30
2018-12-02T10:38:59.469Z,70.40
2018-12-02T10:41:30.455Z,70.60
2018-12-02T10:44:01.483Z,70.60
2018-12-02T10:46:32.272Z,70.70
2018-12-02T10:49:03.186Z,70.60
2018-12-02T10:51:34.349Z,70.70
2018-12-02T10:54:05.863Z,70.70
2018-12-02T10:56:36.305Z,70.70
2018-12-02T10:59:07.227Z,70.90
2018-12-02T11:01:38.068Z,71.00
2018-12-02T11:04:08.955Z,71.20
2018-12-02T11:06:40.087Z,71.20
2018-12-02T11:09:13.438Z,71.20
2018-12-02T11:11:45.028Z,71.20
2018-12-02T11:14:15.531Z,71.40
2018-12-02T11:16:46.518Z,71.40
2018-12-02T11:19:17.401Z,71.40
2018-12-02T11:21:48.225Z,71.50
2018-12-02T11:24:19.045Z,71.60
2018-12-02T11:26:49.976Z,71.80
2018-12-02T11:29:20.876Z,72.00
2018-12-02T11:31:51.922Z,72.00
2018-12-02T11:34:22.964Z,72.40
2018-12-02T11:36:53.833Z,72.40
2018-12-02T11:39:25.211Z,72.40
2018-12-02T11:41:56.234Z,72.40
2018-12-02T11:44:27.105Z,72.50
2018-12-02T11:46:57.970Z,72.40
2018-12-02T11:49:30.146Z,72.40
2018-12-02T11:52:01.046Z,72.40
2018-12-02T11:54:31.470Z,72.60
2018-12-02T11:57:02.436Z,72.60
2018-12-02T11:59:33.593Z,72.60
2018-12-02T12:02:07.681Z,72.50
2018-12-02T12:04:35.493Z,72.30
2018-12-02T12:07:07.032Z,72.40
2018-12-02T12:09:38.707Z,72.40
2018-12-02T12:12:09.736Z,72.20
2018-12-02T12:14:41.043Z,72.40
2018-12-02T12:17:13.392Z,72.40
2018-12-02T12:19:44.515Z,72.40
2018-12-02T12:22:15.239Z,72.30
2018-12-02T12:24:46.412Z,72.50
2018-12-02T12:27:17.238Z,72.40
2018-12-02T12:29:48.029Z,72.20
2018-12-02T12:32:18.975Z,72.20
2018-12-02T12:34:49.718Z,72.00
2018-12-02T12:37:20.616Z,72.00
2018-12-02T12:39:51.700Z,71.80
2018-12-02T12:42:22.957Z,72.10
2018-12-02T12:44:54.033Z,72.20
2018-12-02T12:47:24.756Z,72.00
2018-12-02T12:49:55.612Z,71.90
2018-12-02T12:52:26.608Z,72.00
2018-12-02T12:54:57.400Z,72.00
2018-12-02T12:57:29.802Z,71.90
2018-12-02T13:00:00.668Z,71.80
2018-12-02T13:02:31.544Z,71.80
2018-12-02T13:05:02.307Z,71.90
2018-12-02T13:07:33.296Z,71.90
2018-12-02T13:10:04.895Z,71.90
2018-12-02T13:12:36.176Z,71.90
2018-12-02T13:15:14.299Z,71.90
2018-12-02T13:17:52.551Z,71.90
2018-12-02T13:20:25.206Z,71.00
2018-12-02T13:22:56.088Z,71.80
2018-12-02T13:25:27.145Z,71.50
2018-12-02T13:27:58.482Z,71.50
2018-12-02T13:30:29.299Z,71.50
2018-12-02T13:33:00.177Z,71.50
2018-12-02T13:35:31.100Z,71.60
2018-12-02T13:38:02.055Z,71.50
2018-12-02T13:40:33.189Z,71.40
2018-12-02T13:43:07.428Z,71.40
2018-12-02T13:45:38.408Z,71.50
2018-12-02T13:48:09.353Z,71.40
2018-12-02T13:50:40.605Z,71.20
2018-12-02T13:53:11.940Z,71.20
2018-12-02T13:55:42.836Z,71.00
2018-12-02T13:58:13.680Z,71.00
2018-12-02T14:00:44.820Z,70.90
2018-12-02T14:03:16.221Z,69.70
2018-12-02T14:05:49.288Z,70.90
2018-12-02T14:08:20.594Z,70.90
2018-12-02T14:10:51.405Z,70.90
2018-12-02T14:13:26.809Z,70.80
2018-12-02T14:16:21.897Z,71.00
2018-12-02T14:18:53.940Z,70.90
2018-12-02T14:21:24.852Z,70.70
2018-12-02T14:23:55.650Z,70.60
2018-12-02T14:26:26.130Z,70.70
2018-12-02T14:29:08.731Z,70.80
2018-12-02T14:31:42.536Z,70.50
2018-12-02T14:34:13.637Z,70.70
2018-12-02T14:36:44.539Z,70.80
2018-12-02T14:39:15.706Z,71.60
2018-12-02T14:41:46.556Z,70.80
2018-12-02T14:44:17.371Z,70.60
2018-12-02T14:46:48.066Z,70.80
2018-12-02T14:49:20.452Z,70.90
2018-12-02T14:51:51.387Z,70.90
2018-12-02T14:54:22.155Z,71.00
2018-12-02T14:56:53.084Z,71.10
2018-12-02T14:59:23.823Z,71.00
2018-12-02T15:01:54.769Z,71.10
2018-12-02T15:04:25.571Z,71.10
2018-12-02T15:06:56.304Z,71.10
2018-12-02T15:09:27.262Z,71.00
2018-12-02T15:11:59.341Z,71.10
2018-12-02T15:14:30.286Z,71.20
2018-12-02T15:17:01.869Z,72.10
2018-12-02T15:19:32.963Z,71.30
2018-12-02T15:22:03.907Z,71.30
2018-12-02T15:24:34.772Z,71.40
2018-12-02T15:27:05.803Z,71.40
2018-12-02T15:29:37.819Z,71.50
2018-12-02T15:32:08.601Z,72.20
2018-12-02T15:34:39.686Z,71.60
2018-12-02T15:37:10.485Z,71.40
2018-12-02T15:39:41.364Z,71.60
2018-12-02T15:42:12.252Z,71.70
2018-12-02T15:44:43.133Z,71.80
2018-12-02T15:47:14.274Z,71.80
2018-12-02T15:49:45.062Z,71.60
2018-12-02T15:52:17.311Z,71.90
2018-12-02T15:54:46.800Z,72.00
2018-12-02T15:57:17.782Z,72.00
2018-12-02T15:59:48.809Z,72.00
2018-12-02T16:02:19.707Z,72.00
2018-12-02T16:04:50.705Z,72.00
2018-12-02T16:07:21.720Z,72.00
2018-12-02T16:09:52.770Z,72.10
2018-12-02T16:12:23.491Z,72.20
2018-12-02T16:14:54.256Z,72.20
2018-12-02T16:17:25.379Z,72.30
2018-12-02T16:19:56.366Z,72.30
2018-12-02T16:22:27.211Z,72.30
2018-12-02T16:24:58.333Z,72.20
2018-12-02T16:27:29.337Z,72.30
2018-12-02T16:30:00.199Z,72.30
2018-12-02T16:32:30.912Z,73.10
2018-12-02T16:35:01.671Z,72.20
2018-12-02T16:37:32.420Z,72.20
2018-12-02T16:40:03.662Z,72.20
2018-12-02T16:42:34.525Z,72.20
2018-12-02T16:45:07.505Z,72.30
2018-12-02T16:47:39.054Z,72.30
2018-12-02T16:50:22.046Z,72.30
2018-12-02T16:52:54.472Z,72.40
2018-12-02T16:55:30.351Z,72.50
2018-12-02T16:58:14.463Z,72.20
2018-12-02T17:01:15.411Z,72.40
2018-12-02T17:03:46.353Z,72.40
2018-12-02T17:06:17.186Z,72.40
2018-12-02T17:08:48.350Z,72.40
2018-12-02T17:11:19.260Z,72.50
2018-12-02T17:13:50.744Z,72.50
2018-12-02T17:16:21.927Z,72.50
2018-12-02T17:18:53.004Z,72.50
2018-12-02T17:21:23.974Z,72.50
2018-12-02T17:23:54.892Z,72.50
2018-12-02T17:26:25.424Z,72.50
2018-12-02T17:28:57.039Z,72.50
2018-12-02T17:31:32.502Z,72.50
2018-12-02T17:34:03.006Z,72.50
2018-12-02T17:36:33.878Z,72.60
2018-12-02T17:39:17.340Z,72.40
2018-12-02T17:41:52.777Z,72.50
2018-12-02T17:44:23.863Z,72.40
2018-12-02T17:46:55.241Z,72.60
2018-12-02T17:49:26.227Z,72.70
2018-12-02T17:51:57.265Z,72.60
2018-12-02T17:54:28.217Z,72.40
2018-12-02T17:56:59.252Z,72.50
2018-12-02T17:59:30.013Z,72.50
2018-12-02T18:02:01.300Z,70.60
2018-12-02T18:04:32.153Z,72.50
2018-12-02T18:07:03.037Z,72.20
2018-12-02T18:09:34.369Z,72.30
2018-12-02T18:12:05.451Z,73.00
2018-12-02T18:14:36.543Z,72.20
2018-12-02T18:17:07.789Z,72.20
2018-12-02T18:19:38.763Z,72.10
2018-12-02T18:22:09.599Z,72.00
2018-12-02T18:24:40.603Z,72.00
2018-12-02T18:27:11.809Z,72.10
2018-12-02T18:29:42.695Z,72.00
2018-12-02T18:32:13.538Z,72.00
2018-12-02T18:34:44.409Z,71.90
2018-12-02T18:37:15.866Z,71.90
2018-12-02T18:39:46.752Z,72.60
2018-12-02T18:42:17.730Z,71.80
2018-12-02T18:44:48.462Z,71.70
2018-12-02T18:47:19.306Z,71.60
2018-12-02T18:49:50.028Z,71.70
2018-12-02T18:52:21.075Z,71.40
2018-12-02T18:54:52.144Z,71.60
2018-12-02T18:57:23.020Z,71.60
2018-12-02T18:59:53.907Z,71.60
2018-12-02T19:02:24.707Z,71.50
2018-12-02T19:04:55.601Z,71.50
2018-12-02T19:07:26.429Z,71.40
2018-12-02T19:09:57.605Z,71.30
2018-12-02T19:12:28.480Z,71.40
2018-12-02T19:14:59.534Z,71.20
2018-12-02T19:17:30.339Z,71.10
2018-12-02T19:20:01.476Z,71.10
2018-12-02T19:22:31.949Z,70.50
2018-12-02T19:25:02.831Z,70.90
2018-12-02T19:27:33.849Z,70.90
2018-12-02T19:30:06.613Z,71.00
2018-12-02T19:32:37.403Z,71.60
2018-12-02T19:35:45.142Z,70.90
2018-12-02T19:38:19.597Z,70.80
2018-12-02T19:40:50.925Z,70.60
2018-12-02T19:43:21.987Z,70.60
2018-12-02T19:45:53.600Z,70.70
2018-12-02T19:48:24.440Z,70.60
2018-12-02T19:50:55.528Z,70.60
2018-12-02T19:53:26.410Z,70.60
2018-12-02T19:55:57.413Z,70.50
2018-12-02T19:58:28.313Z,70.50
2018-12-02T20:01:00.520Z,70.50
2018-12-02T20:03:31.495Z,71.20
2018-12-02T20:06:02.893Z,70.50
2018-12-02T20:08:33.848Z,70.50
2018-12-02T20:11:05.752Z,70.60
2018-12-02T20:13:38.060Z,70.40
2018-12-02T20:16:14.306Z,70.60
2018-12-02T20:18:45.174Z,70.40
2018-12-02T20:21:16.709Z,70.30
2018-12-02T20:23:52.894Z,70.50
2018-12-02T20:26:30.632Z,70.50
2018-12-02T20:29:01.918Z,70.70
2018-12-02T20:31:32.592Z,70.50
2018-12-02T20:34:03.296Z,70.70
2018-12-02T20:36:34.459Z,70.70
2018-12-02T20:39:09.658Z,70.70
2018-12-02T20:41:40.575Z,70.80
2018-12-02T20:44:11.630Z,70.90
2018-12-02T20:46:42.613Z,70.90
2018-12-02T20:49:13.552Z,70.90
2018-12-02T20:51:44.448Z,71.10
2018-12-02T20:54:15.284Z,71.20
2018-12-02T20:56:46.123Z,71.30
2018-12-02T20:59:17.048Z,71.20
2018-12-02T21:01:47.925Z,71.30
2018-12-02T21:04:19.435Z,71.30
2018-12-02T21:06:50.616Z,71.40
2018-12-02T21:09:21.671Z,71.50
2018-12-02T21:11:52.731Z,71.50
2018-12-02T21:14:23.988Z,71.60
2018-12-02T21:16:54.951Z,71.80
2018-12-02T21:19:25.800Z,71.80
2018-12-02T21:21:56.682Z,71.90
2018-12-02T21:24:27.541Z,72.00
2018-12-02T21:26:58.427Z,71.80
2018-12-02T21:29:29.281Z,72.00
2018-12-02T21:32:00.034Z,72.00
2018-12-02T21:34:30.945Z,72.00
2018-12-02T21:37:01.938Z,72.00
2018-12-02T21:39:32.941Z,72.10
2018-12-02T21:42:03.762Z,72.00
2018-12-02T21:44:34.722Z,72.10
2018-12-02T21:47:06.010Z,72.10
2018-12-02T21:49:36.919Z,72.20
2018-12-02T21:52:07.411Z,72.30
2018-12-02T21:54:37.796Z,72.40
2018-12-02T21:57:08.559Z,72.30
2018-12-02T21:59:39.401Z,72.30
2018-12-02T22:02:10.097Z,72.40
2018-12-02T22:04:41.292Z,72.40
2018-12-02T22:07:12.201Z,72.40
2018-12-02T22:09:43.202Z,72.50
2018-12-02T22:12:16.147Z,72.50
2018-12-02T22:14:47.060Z,72.50
2018-12-02T22:17:17.852Z,72.60
2018-12-02T22:19:50.048Z,73.50
2018-12-02T22:22:19.798Z,72.80
2018-12-02T22:24:50.829Z,72.80
2018-12-02T22:27:21.898Z,72.60
2018-12-02T22:29:52.738Z,73.20
2018-12-02T22:32:23.690Z,72.70
2018-12-02T22:34:54.531Z,72.90
2018-12-02T22:37:25.331Z,72.80
2018-12-02T22:39:56.388Z,72.90
2018-12-02T22:42:27.675Z,73.00
2018-12-02T22:44:58.020Z,73.00
2018-12-02T22:47:28.776Z,73.00
2018-12-02T22:49:59.508Z,73.10
2018-12-02T22:52:30.296Z,73.10
2018-12-02T22:55:01.027Z,73.10
2018-12-02T22:57:31.895Z,73.20
2018-12-02T23:00:02.640Z,73.20
2018-12-02T23:02:38.712Z,73.20
2018-12-02T23:05:09.723Z,73.10
2018-12-02T23:07:40.269Z,74.00
2018-12-02T23:10:11.300Z,73.10
2018-12-02T23:12:42.063Z,73.20
2018-12-02T23:15:12.928Z,73.20
2018-12-02T23:17:44.232Z,73.10
2018-12-02T23:20:18.077Z,73.30
2018-12-02T23:22:48.856Z,73.00
2018-12-02T23:25:19.656Z,73.20
2018-12-02T23:27:50.845Z,73.30
2018-12-02T23:30:24.234Z,73.30
2018-12-02T23:32:57.915Z,73.30
2018-12-02T23:35:28.851Z,73.30
2018-12-02T23:37:59.568Z,73.30
2018-12-02T23:40:30.355Z,73.30
2018-12-02T23:43:01.153Z,73.00
2018-12-02T23:45:32.115Z,73.40
2018-12-02T23:48:03.099Z,73.20
2018-12-02T23:50:34.117Z,73.50
2018-12-02T23:53:05.513Z,74.20
2018-12-02T23:55:36.547Z,74.30
2018-12-02T23:58:07.791Z,73.70
